Mesquite, Nevada Weather observations

Data are for observation ending at time listed.
 Day   Time    Ave.   Ave.  Ave.  Vector   Max.   Stn.    Total    Solar   Ave.  
  of    of     Air    Rel.  Wind   Wind    Wind   Baro.  Precip.   Rad.    Soil  
Year   Day     Temp.  Hum.  Speed  Dir.    Gust   Pres.                    Temp. 
2015   (PST)    F      %     mph   deg.    mph     mb.     in.     W/m2     F   
------------------------------------------------------------------------------
 187    0:00   87.3    31    0.5    12      1.5   949.0    0.00       1    91.4
 187    0:10   86.6    34    0.4     3      1.8   949.0    0.00       1    89.7
 187    0:20   86.2    34    1.2    54      4.5   948.9    0.00       1    90.3
 187    0:30   87.4    29    3.5    85      7.4   948.9    0.00       1    92.1
 187    0:40   88.0    28    4.3   125      8.3   948.8    0.00       2    92.3
 187    0:50   88.0    29    2.4   141      4.7   948.7    0.00       1    91.5
 187    1:00   87.5    30    2.7   322      4.5   948.8    0.00       1    90.8
 187    1:10   87.9    29    3.9   349      5.6   948.9    0.00       1    91.4
 187    1:20   88.1    29    4.0   354      6.4   949.0    0.00       1    91.5
 187    1:30   88.0    29    4.7   351      6.8   949.0    0.00       1    91.4
 187    1:40   88.2    28    3.6   348      5.8   949.0    0.00       1    91.4
 187    1:50   88.2    28    2.4   359      5.2   949.0    0.00       1    91.8
 187    2:00   88.5    28    1.0   152      3.4   949.1    0.00       1    91.9
 187    2:10   88.1    28    1.1    85      2.0   949.1    0.00       2    92.2
 187    2:20   87.7    29    1.8    65      3.8   949.1    0.00       1    92.1
 187    2:30   87.6    29    3.2   134      5.8   949.1    0.00       1    91.7
 187    2:40   88.1    29    3.3   138      5.8   949.1    0.00       1    91.7
 187    2:50   87.9    30    2.8   156      6.1   949.1    0.00       1    91.4
 187    3:00   87.6    30    2.0   159      4.7   949.2    0.00       1    91.2
 187    3:10   87.0    31    0.8   155      3.5   949.3    0.00       1    90.3
 187    3:20   87.0    31    1.0   326      1.8   949.5    0.00       1    90.4
 187    3:30   87.5    29    1.3   318      2.6   949.6    0.00       1    90.6
 187    3:40   87.7    28    0.4   329      1.5   949.8    0.00       1    90.5
 187    3:50   87.5    29    0.5   133      2.7   950.1    0.00       1    90.8
 187    4:00   87.2    29    1.2   132      2.9   950.3    0.00       1    91.4
 187    4:10   86.9    31    2.0   223      5.5   950.4    0.00       1    90.1
 187    4:20   86.8    32    1.7   219      3.7   950.5    0.00       2    90.1
 187    4:30   86.7    32    0.8   215      2.3   950.7    0.00       3    90.1
 187    4:40   86.7    32    0.8   192      2.9   950.7    0.00       3    90.5
 187    4:50   86.7    32    1.6   158      3.7   950.7    0.00       4    90.6
 187    5:00   86.3    32    2.4    81      3.9   950.7    0.00      11    91.2
 187    5:10   86.2    32    3.9    64      5.0   950.7    0.00      18    91.6
 187    5:20   85.8    34    4.4    62      5.8   950.8    0.00      25    91.5
 187    5:30   85.4    34    3.0    77      5.0   950.9    0.00      30    91.3
 187    5:40   85.7    34    3.5   105      5.7   951.0    0.00      41    91.3
 187    5:50   86.0    34    2.7     7      3.8   951.0    0.00      55    90.6
 187    6:00   86.5    33    2.4   320      3.7   951.2    0.00      69    89.8
 187    6:10   86.9    32    3.1   305      4.9   951.3    0.00      85    90.6
 187    6:20   87.0    32    3.8   310      7.0   951.5    0.00      90    90.8
 187    6:30   87.3    32    4.7   301      6.8   951.6    0.00      90    91.0
 187    6:40   88.1    31    4.3   293      7.4   951.7    0.00      97    91.3
 187    6:50   88.6    30    1.1   239      2.8   951.7    0.00     111    92.0
 187    7:00   89.2    30    0.9   289      2.4   951.7    0.00     106    92.3
 187    7:10   88.9    31    1.3   279      3.2   951.8    0.00      89    91.7
 187    7:20   88.8    31    1.1   170      2.9   951.9    0.00      84    92.5
 187    7:30   88.5    32    3.0   240      6.9   952.0    0.00      79    91.5
 187    7:40   88.1    33    2.7   242      6.2   952.0    0.00      79    91.3
 187    7:50   88.2    33    3.8   299      7.3   952.1    0.00      79    91.6
 187    8:00   88.2    32    2.6   320      5.2   952.1    0.00      81    92.2
 187    8:10   88.9    32    1.7    25      3.4   952.2    0.00      93    93.8
 187    8:20   89.2    32    4.3   106      6.1   952.2    0.00     117    94.9
 187    8:30   89.0    33    5.1   108      7.3   952.2    0.00     148    95.6
 187    8:40   89.3    32    4.8   112      6.1   952.2    0.00     167    96.3
 187    8:50   89.9    31    4.3   112      6.8   952.2    0.00     192    96.3
 187    9:00   90.4    30    3.6   113      7.4   952.2    0.00     226    96.5
 187    9:10   90.5    30    5.9   102      8.6   952.1    0.00     234    98.2
 187    9:20   90.4    30    5.7    99      8.6   952.1    0.00     236    98.6
 187    9:30   90.4    30    5.3    98      8.8   952.2    0.00     228    98.5
 187    9:40   90.4    30    3.2    88      5.9   952.2    0.00     235    98.8
 187    9:50   90.9    30    1.7    72      3.9   952.3    0.00     268    97.8
 187   10:00   91.8    29    1.1   263      2.5   952.3    0.00     304    96.0
 187   10:10   92.8    27    0.8   225      2.4   952.3    0.00     344    98.0
 187   10:20   93.4    27    1.8   265      4.0   952.3    0.00     447    97.3
 187   10:30   94.4    26    1.6    57      4.5   952.3    0.00     396    100.2
 187   10:40   93.5    27    1.6   321      3.3   952.1    0.00     388    99.5
 187   10:50   93.8    27    2.9    32      5.8   952.0    0.00     586    102.2
 187   11:00   94.8    26    2.9    52      5.8   951.9    0.00     657    104.1
 187   11:10   96.5    25    2.6    57      7.5   951.7    0.00     757    103.1
 187   11:20   97.7    23    1.9   235      5.3   951.6    0.00     738    100.6
 187   11:30   97.8    22    1.7    66      5.1   951.5    0.00     564    103.9
 187   11:40   95.7    24    5.2   283      8.6   951.4    0.00     522    100.6
 187   11:50   96.2    23    5.0   290      9.1   951.2    0.00     771    102.8
 187   12:00   96.4    23    4.9   236      8.6   951.1    0.00     718    101.5
 187   12:10   96.5    22    5.1   268     11.3   950.9    0.00     684    102.8
 187   12:20   96.1    22    5.1   318      8.8   950.7    0.00     716    103.1
 187   12:30   96.6    21    3.2   302      6.7   950.6    0.00     709    103.3
 187   12:40   98.0    20    2.2   222      6.6   950.4    0.00     700    102.6
 187   12:50   97.8    20    4.7   297     10.2   950.2    0.00     691    103.3
 187   13:00   98.2    19    3.9   354      8.7   950.1    0.00     687    105.6
 187   13:10   97.6    20    4.4   288      9.0   949.9    0.00     681    105.5
 187   13:20   97.7    21    4.0   240      8.7   949.8    0.00     684    104.4
 187   13:30   98.4    20    3.4   272      8.0   949.6    0.00     711    106.4
 187   13:40   99.5    19    2.9   252      6.9   949.4    0.00     705    107.1
 187   13:50  100.7    18    3.9   344      8.5   949.4    0.00     694    111.2
 187   14:00   99.6    18    4.6    81      8.2   949.3    0.00     450    110.7
 187   14:10   99.5    19    3.1   252      8.0   949.2    0.00     410    108.9
 187   14:20   99.4    19    3.6   231      8.2   949.0    0.00     497    109.2
 187   14:30  100.5    18    1.8   160      5.3   948.9    0.00     316    110.4
 187   14:40   99.1    18    2.6   119      7.1   948.7    0.00     177    106.4
 187   14:50   99.8    18    4.3    54      8.6   948.6    0.00     388    114.9
 187   15:00  101.0    17    3.9   122      7.2   948.5    0.00     458    116.6
 187   15:10  100.1    17    4.9   142      8.1   948.3    0.00     233    109.1
 187   15:20   99.1    18    3.8   132      6.7   948.4    0.00     116    106.6
 187   15:30   98.2    19    4.8   152      9.0   948.4    0.00      80    104.4
 187   15:40   96.5    22    6.2   152     11.1   948.3    0.00     101    102.5
 187   15:50   94.7    24    9.6   155     19.4   948.4    0.00      88    100.8
 187   16:00   92.5    27   10.2   150     19.4   948.5    0.00      71    99.0
 187   16:10   89.8    32    8.4   161     15.9   948.5    0.00      58    97.0
 187   16:20   88.2    34   10.4   166     16.4   948.5    0.00      55    95.8
 187   16:30   88.5    32    8.5   148     14.5   948.4    0.00      62    95.7
 187   16:40   88.6    32   11.3   128     18.1   948.5    0.00      65    96.4
 187   16:50   89.7    28   10.9   144     19.2   948.6    0.00      62    95.9
 187   17:00   89.8    29    9.5   136     13.8   948.7    0.00      42    95.9
 187   17:10   88.9    30    6.3   116     10.5   948.7    0.00      25    96.2
 187   17:20   89.2    28    3.5   170      9.4   948.6    0.00      18    95.2
 187   17:30   89.4    28    4.5   139     12.0   948.5    0.00      14    95.7
 187   17:40   88.7    30    3.8    39      8.3   948.6    0.00      18    96.1
 187   17:50   87.9    31    7.4    58      9.6   948.5    0.00      26    96.4
 187   18:00   87.4    32    7.3    78     10.3   948.4    0.00      33    95.5
 187   18:10   88.8    29    3.7   124     10.5   948.4    0.00      33    95.3
 187   18:20   89.7    28    1.9   101      4.0   948.4    0.00      27    95.6
 187   18:30   90.2    27    1.7   136      3.4   948.6    0.00      19    95.1
 187   18:40   90.0    28    2.5   220      4.9   948.7    0.00      13    94.0
 187   18:50   89.2    29    2.8   202      5.3   948.7    0.00       7    93.5
 187   19:00   88.8    29    1.0   204      3.1   948.8    0.00       3    93.4
 187   19:10   89.4    27    2.4   220      7.7   948.9    0.00       3    94.0
 187   19:20   90.2    27    3.5   281      7.3   949.2    0.00       1    94.0
 187   19:30   88.1    31   14.1   348     25.4   949.7    0.00       1    92.5
 187   19:40   86.1    34   14.8   354     27.2   949.7    0.00       1    91.3
 187   19:50   83.2    37   18.9   349     32.1   949.8    0.00       1    89.0
 187   20:00   82.5    38   18.8   355     34.8   949.9    0.00       1    87.5
 187   20:10   82.6    37   17.2   360     29.5   949.9    0.00       1    87.4
 187   20:20   82.7    37   16.0     5     23.2   949.9    0.00       0    87.5
 187   20:30   82.3    39   14.4    76     21.9   950.0    0.00       1    87.9
 187   20:40   81.9    40    9.9    38     18.7   950.3    0.00       0    87.8
 187   20:50   82.1    40   10.3    27     16.4   950.3    0.00       1    87.4
 187   21:00   81.7    42    8.3    33     15.1   950.3    0.00       1    87.9
 187   21:10   82.3    44    5.7   332      9.9   950.3    0.00       0    86.3
 187   21:20   82.3    42    7.4   316     12.8   950.3    0.00       0    86.1
 187   21:30   83.1    40    8.2   320     11.6   950.2    0.00       1    86.5
 187   21:40   82.7    41    4.8   322      9.9   950.1    0.00       1    86.6
 187   21:50   83.3    38    2.7    43      5.8   949.9    0.00       1    88.3
 187   22:00   83.5    39    3.7   189      7.2   949.9    0.00       1    86.8
 187   22:10   82.6    40    2.3   240      5.8   949.8    0.00       1    86.6
 187   22:20   82.9    40    2.3   207      4.5   949.8    0.00       1    86.5
 187   22:30   82.8    40    1.7   258      2.9   949.8    0.00       1    86.5
 187   22:40   82.5    41    1.7   205      4.3   949.8    0.00       1    86.3

Return to Mesquite, Nevada graphs page.


Western Regional Climate Center,wrcc@dri.edu